Time;durP1;ratioP1;P1;durP2;ratioP2;P2;SDS_P1;SDS_P2;PMS_P1;PMS_P2;Temp;Humidity;BMP_temperature;BMP_pressure;BME280_temperature;BME280_humidity;BME280_pressure;Samples;Min_cycle;Max_cycle;Signal;HPM_P1;HPM_P2
2021/11/13 00:01:49;;;;;;;57.55;30.77;;;;;;;5.04;91.50;100238.47;1807528;77;22241;-85
2021/11/13 00:04:15;;;;;;;52.45;27.80;;;;;;;5.02;91.57;100235.91;1806259;79;21076;-85
2021/11/13 00:06:41;;;;;;;52.58;28.32;;;;;;;4.99;91.59;100235.22;1805872;79;20997;-84
2021/11/13 00:09:07;;;;;;;59.27;29.82;;;;;;;4.95;91.65;100234.54;1809565;77;21519;-84
2021/11/13 00:11:34;;;;;;;60.80;30.17;;;;;;;4.93;91.71;100234.59;1812277;77;21029;-85
2021/11/13 00:14:02;;;;;;;63.35;32.48;;;;;;;4.91;91.78;100229.09;1807879;77;20945;-85
2021/11/13 00:16:33;;;;;;;57.15;29.90;;;;;;;4.88;91.83;100222.23;1802599;79;21008;-85
2021/11/13 00:19:01;;;;;;;58.00;29.87;;;;;;;4.86;91.84;100227.16;1806461;79;21471;-85
2021/11/13 00:21:29;;;;;;;58.85;31.80;;;;;;;4.83;91.84;100220.77;1807465;77;20993;-85
2021/11/13 00:23:55;;;;;;;65.08;32.67;;;;;;;4.80;91.86;100217.00;1805358;79;21016;-85
2021/11/13 00:26:22;;;;;;;72.78;36.25;;;;;;;4.78;91.96;100211.86;1805536;78;20969;-85
2021/11/13 00:28:48;;;;;;;64.40;34.80;;;;;;;4.76;92.05;100207.63;1805354;79;21380;-85
2021/11/13 00:31:14;;;;;;;70.22;35.92;;;;;;;4.75;92.11;100209.41;1807335;77;20990;-85
2021/11/13 00:33:40;;;;;;;69.15;36.73;;;;;;;4.74;92.17;100211.64;1805295;78;20941;-86
2021/11/13 00:36:06;;;;;;;77.22;37.60;;;;;;;4.73;92.19;100211.70;1805946;79;20945;-85
2021/11/13 00:38:32;;;;;;;73.90;38.15;;;;;;;4.74;92.24;100205.54;1805672;78;21486;-85
2021/11/13 00:40:58;;;;;;;77.30;41.68;;;;;;;4.72;92.22;100212.63;1806115;77;20933;-86
2021/11/13 00:43:26;;;;;;;85.45;45.90;;;;;;;4.72;92.28;100216.55;1805726;79;21491;-85
2021/11/13 00:45:52;;;;;;;84.15;44.67;;;;;;;4.70;92.33;100217.48;1807538;79;20978;-85
2021/11/13 00:48:18;;;;;;;85.65;44.53;;;;;;;4.68;92.42;100213.25;1806617;79;20958;-85
2021/11/13 00:50:44;;;;;;;81.35;43.08;;;;;;;4.67;92.51;100208.49;1809312;77;21419;-86
2021/11/13 00:53:11;;;;;;;84.60;45.00;;;;;;;4.68;92.60;100215.86;1805050;78;21266;-85
2021/11/13 00:55:37;;;;;;;86.80;46.35;;;;;;;4.66;92.69;100213.31;1806204;78;20980;-84
2021/11/13 00:58:03;;;;;;;89.67;46.10;;;;;;;4.66;92.72;100213.31;1806466;77;20958;-84
2021/11/13 01:00:29;;;;;;;102.87;48.05;;;;;;;4.65;92.77;100207.70;1805858;77;20973;-85
2021/11/13 01:02:55;;;;;;;89.70;45.67;;;;;;;4.65;92.82;100205.09;1806266;79;21001;-85
2021/11/13 01:05:21;;;;;;;88.95;47.15;;;;;;;4.64;92.89;100203.41;1821924;77;21475;-85
2021/11/13 01:07:48;;;;;;;93.78;48.70;;;;;;;4.65;93.00;100201.17;1825138;77;21005;-85
2021/11/13 01:10:18;;;;;;;88.35;45.78;;;;;;;4.64;92.94;100202.11;1836780;76;21524;-85
2021/11/13 01:12:45;;;;;;;97.67;49.58;;;;;;;4.64;93.03;100196.87;1849474;76;20983;-85
2021/11/13 01:15:14;;;;;;;93.52;49.33;;;;;;;4.64;93.05;100196.00;1837053;77;20955;-84
2021/11/13 01:17:40;;;;;;;91.60;46.85;;;;;;;4.63;93.10;100195.63;1833738;77;20976;-85
2021/11/13 01:20:11;;;;;;;94.72;50.75;;;;;;;4.63;93.07;100199.55;1835782;76;21433;-85
2021/11/13 01:22:38;;;;;;;95.65;51.55;;;;;;;4.60;93.07;100197.93;1840580;76;21018;-85
2021/11/13 01:25:07;;;;;;;97.75;50.95;;;;;;;4.60;93.20;100197.93;1845536;76;20990;-86
2021/11/13 01:27:33;;;;;;;99.83;51.08;;;;;;;4.59;93.21;100192.33;1833228;78;20924;-85
2021/11/13 01:29:59;;;;;;;96.57;50.00;;;;;;;4.59;93.21;100187.10;1831471;76;20967;-85
2021/11/13 01:32:26;;;;;;;99.03;53.13;;;;;;;4.56;93.22;100187.25;1814993;76;20950;-84
2021/11/13 01:34:52;;;;;;;93.37;52.73;;;;;;;4.55;93.31;100181.66;1815305;78;20957;-85
2021/11/13 01:37:18;;;;;;;100.58;55.67;;;;;;;4.54;93.36;100179.09;1828381;78;20935;-84
2021/11/13 01:39:46;;;;;;;100.35;52.08;;;;;;;4.52;93.42;100171.81;1833615;77;21508;-85
2021/11/13 01:42:12;;;;;;;99.87;53.13;;;;;;;4.49;93.56;100166.27;1830401;78;21470;-85
2021/11/13 01:44:38;;;;;;;101.38;53.60;;;;;;;4.48;93.48;100165.90;1837635;78;20975;-86
2021/11/13 01:47:05;;;;;;;96.25;52.05;;;;;;;4.46;93.60;100163.34;1837363;77;21017;-85
2021/11/13 01:49:34;;;;;;;98.22;51.90;;;;;;;4.46;93.58;100167.73;1830192;77;20923;-85
2021/11/13 01:52:00;;;;;;;103.30;54.45;;;;;;;4.44;93.57;100165.64;1836791;78;21528;-85
2021/11/13 01:54:27;;;;;;;99.25;51.58;;;;;;;4.42;93.62;100160.98;1837945;78;20955;-85
2021/11/13 01:56:53;;;;;;;94.32;50.75;;;;;;;4.41;93.58;100164.05;1832748;78;21010;-85
2021/11/13 01:59:22;;;;;;;103.45;52.70;;;;;;;4.39;93.50;100159.36;1820400;78;21002;-85
2021/11/13 02:01:49;;;;;;;95.97;50.38;;;;;;;4.36;93.49;100157.36;1804181;78;21062;-85
2021/11/13 02:04:15;;;;;;;101.75;54.50;;;;;;;4.35;93.62;100156.52;1804443;79;21054;-85
2021/11/13 02:06:41;;;;;;;97.33;51.40;;;;;;;4.34;93.54;100160.49;1818730;77;21441;-85
2021/11/13 02:09:07;;;;;;;90.38;49.13;;;;;;;4.33;93.59;100152.28;1805155;78;21434;-85
2021/11/13 02:11:33;;;;;;;103.53;50.83;;;;;;;4.30;93.46;100148.05;1832699;78;20950;-85
2021/11/13 02:14:02;;;;;;;99.32;51.28;;;;;;;4.29;93.45;100154.67;1842966;78;21574;-85
2021/11/13 02:16:28;;;;;;;97.27;50.92;;;;;;;4.27;93.44;100148.66;1849910;76;21005;-85
2021/11/13 02:18:55;;;;;;;97.42;49.85;;;;;;;4.22;93.49;100148.44;1842110;77;21021;-85
2021/11/13 02:21:21;;;;;;;95.20;47.67;;;;;;;4.20;93.47;100138.52;1840802;78;21013;-85
2021/11/13 02:23:48;;;;;;;95.77;50.50;;;;;;;4.18;93.50;100139.53;1842111;78;20992;-85
2021/11/13 02:26:14;;;;;;;94.97;47.70;;;;;;;4.16;93.50;100140.05;1851978;76;21518;-85
2021/11/13 02:28:41;;;;;;;95.28;47.75;;;;;;;4.15;93.45;100135.77;1844718;76;20946;-85
2021/11/13 02:31:10;;;;;;;99.65;48.98;;;;;;;4.12;93.34;100138.05;1841040;77;21009;-85
2021/11/13 02:33:37;;;;;;;98.20;49.65;;;;;;;4.10;93.46;100135.97;1841064;77;21025;-85
2021/11/13 02:36:06;;;;;;;97.50;50.45;;;;;;;4.08;93.51;100132.61;1841792;76;21018;-85
2021/11/13 02:38:37;;;;;;;92.75;48.25;;;;;;;4.06;93.43;100133.13;1865109;76;20959;-85
2021/11/13 02:41:10;;;;;;;94.25;49.18;;;;;;;4.03;93.61;100139.80;1833032;78;20945;-85
2021/11/13 02:43:38;;;;;;;94.05;47.67;;;;;;;4.00;93.59;100130.81;1841573;78;20978;-86
2021/11/13 02:46:07;;;;;;;99.50;50.10;;;;;;;3.99;93.65;100137.80;1843424;76;21040;-87
2021/11/13 02:48:37;;;;;;;96.57;48.42;;;;;;;3.98;93.50;100132.64;1843149;78;20989;-86
2021/11/13 02:51:04;;;;;;;89.83;48.08;;;;;;;3.95;93.55;100132.35;1842965;78;20958;-86
2021/11/13 02:53:30;;;;;;;96.15;48.45;;;;;;;3.94;93.48;100131.95;1842942;77;21043;-86
2021/11/13 02:56:00;;;;;;;93.30;46.08;;;;;;;3.90;93.55;100131.72;1855832;76;20964;-86
2021/11/13 02:58:26;;;;;;;101.87;51.68;;;;;;;3.89;93.61;100130.50;1842199;78;20938;-86
2021/11/13 03:00:57;;;;;;;97.42;48.90;;;;;;;3.89;93.71;100123.97;1841611;78;20998;-86
2021/11/13 03:03:23;;;;;;;89.65;48.45;;;;;;;3.87;93.71;100126.64;1858301;76;20975;-86
2021/11/13 03:05:53;;;;;;;94.70;52.78;;;;;;;3.87;93.78;100125.33;1867908;76;21546;-86
2021/11/13 03:08:30;;;;;;;103.78;51.37;;;;;;;3.86;93.82;100127.56;1843321;78;20959;-86
2021/11/13 03:11:00;;;;;;;100.50;50.78;;;;;;;3.84;93.85;100128.09;1843172;77;21020;-86
2021/11/13 03:13:27;;;;;;;97.42;52.03;;;;;;;3.83;93.78;100125.10;1857184;76;20983;-86
2021/11/13 03:15:53;;;;;;;100.07;50.80;;;;;;;3.83;93.82;100126.41;1842836;78;21444;-87
2021/11/13 03:18:20;;;;;;;103.72;53.58;;;;;;;3.84;93.85;100128.55;1843473;77;20994;-86
2021/11/13 03:20:47;;;;;;;98.10;50.40;;;;;;;3.82;93.90;100129.95;1858307;76;20997;-86
2021/11/13 03:23:15;;;;;;;99.13;51.18;;;;;;;3.81;93.99;100131.31;1853125;76;21468;-86
2021/11/13 03:25:55;;;;;;;95.40;48.40;;;;;;;3.78;93.96;100131.45;1843445;76;21511;-86
2021/11/13 03:28:25;;;;;;;102.95;51.08;;;;;;;3.76;94.09;100131.08;1846473;76;21004;-86
2021/11/13 03:30:51;;;;;;;96.45;51.40;;;;;;;3.74;94.07;100132.90;1843067;78;20945;-86
2021/11/13 03:33:18;;;;;;;101.60;52.25;;;;;;;3.73;94.23;100132.52;1842593;78;21001;-87
2021/11/13 03:35:45;;;;;;;94.60;49.27;;;;;;;3.71;94.29;100121.77;1843137;77;21028;-86
2021/11/13 03:38:15;;;;;;;98.67;49.10;;;;;;;3.71;94.49;100129.59;1856961;76;20978;-86
2021/11/13 03:40:46;;;;;;;97.30;50.43;;;;;;;3.69;94.54;100128.37;1883705;76;20997;-86
2021/11/13 03:43:13;;;;;;;104.83;49.83;;;;;;;3.68;94.76;100127.12;1852623;76;20961;-87
2021/11/13 03:45:41;;;;;;;96.02;50.05;;;;;;;3.70;94.84;100120.08;1841471;78;21025;-86
2021/11/13 03:48:08;;;;;;;92.85;47.53;;;;;;;3.68;94.91;100120.14;1871530;76;21287;-86
2021/11/13 03:50:34;;;;;;;95.10;47.67;;;;;;;3.69;94.94;100127.07;1842779;77;21507;-87
2021/11/13 03:53:01;;;;;;;99.65;45.98;;;;;;;3.70;94.99;100131.36;1843339;77;20981;-87
2021/11/13 03:55:28;;;;;;;86.60;47.90;;;;;;;3.72;95.05;100130.84;1843164;78;21550;-87
2021/11/13 03:57:54;;;;;;;93.05;47.75;;;;;;;3.73;94.97;100131.22;1844149;76;20946;-87
2021/11/13 04:00:22;;;;;;;98.17;46.80;;;;;;;3.75;94.93;100122.87;1843074;78;21016;-87
2021/11/13 04:02:49;;;;;;;101.60;49.00;;;;;;;3.76;94.86;100123.70;1841528;77;21021;-87
2021/11/13 04:05:17;;;;;;;93.47;47.90;;;;;;;3.76;94.92;100118.49;1841564;77;20989;-86
2021/11/13 04:07:43;;;;;;;97.90;50.03;;;;;;;3.77;94.90;100117.56;1843130;76;20969;-87
2021/11/13 04:10:11;;;;;;;99.77;49.05;;;;;;;3.77;94.92;100116.26;1866469;76;20959;-86
2021/11/13 04:12:39;;;;;;;91.82;47.33;;;;;;;3.75;94.91;100115.04;1860261;77;21014;-87
2021/11/13 04:15:07;;;;;;;99.28;50.80;;;;;;;3.76;94.91;100109.36;1835282;78;21440;-87
2021/11/13 04:17:33;;;;;;;98.12;48.40;;;;;;;3.75;94.81;100117.65;1828762;78;20999;-87
2021/11/13 04:20:00;;;;;;;97.80;47.75;;;;;;;3.76;94.79;100104.13;1835894;78;20994;-87
2021/11/13 04:22:26;;;;;;;98.42;48.17;;;;;;;3.75;94.67;100108.52;1835607;77;20955;-87
2021/11/13 04:24:52;;;;;;;91.53;45.67;;;;;;;3.74;94.62;100104.19;1847484;77;20943;-87
2021/11/13 04:27:18;;;;;;;102.20;47.30;;;;;;;3.74;94.72;100105.96;1861311;77;21523;-87
2021/11/13 04:29:46;;;;;;;93.78;47.78;;;;;;;3.74;94.70;100109.41;1815998;78;21053;-87
2021/11/13 04:32:14;;;;;;;86.30;45.35;;;;;;;3.72;94.67;100106.05;1824017;78;20935;-87
2021/11/13 04:37:15;;;;;;;95.38;48.60;;;;;;;3.72;94.73;100103.44;1842268;77;21025;-87
2021/11/13 04:39:39;;;;;;;91.60;46.63;;;;;;;3.72;94.66;100112.57;1810639;77;20994;-87
2021/11/13 04:42:06;;;;;;;99.62;49.58;;;;;;;3.70;94.58;100105.73;1855760;77;20941;-87
2021/11/13 04:44:32;;;;;;;95.42;50.63;;;;;;;3.69;94.55;100114.02;1837687;78;20967;-87
2021/11/13 04:46:58;;;;;;;104.20;50.73;;;;;;;3.68;94.66;100108.86;1837625;78;20991;-87
2021/11/13 04:49:24;;;;;;;89.92;46.28;;;;;;;3.67;94.59;100107.18;1842114;77;20953;-87
2021/11/13 04:51:50;;;;;;;97.40;50.78;;;;;;;3.65;94.60;100109.00;1843287;77;21004;-87
2021/11/13 04:54:16;;;;;;;91.00;47.23;;;;;;;3.64;94.51;100104.71;1836476;77;21011;-87
2021/11/13 04:56:42;;;;;;;95.17;48.45;;;;;;;3.64;94.54;100106.86;1837599;78;20963;-87
2021/11/13 04:59:08;;;;;;;109.80;50.88;;;;;;;3.63;94.41;100113.00;1837925;78;21465;-87
2021/11/13 05:01:34;;;;;;;93.40;50.45;;;;;;;3.62;94.41;100108.72;1837581;77;20964;-87
2021/11/13 05:03:59;;;;;;;91.45;47.90;;;;;;;3.60;94.31;100117.06;1859144;77;20943;-87
2021/11/13 05:06:28;;;;;;;101.00;51.55;;;;;;;3.57;94.36;100117.66;1871535;77;21079;-87
2021/11/13 05:08:53;;;;;;;100.02;53.73;;;;;;;3.53;94.45;100122.19;1835537;77;21441;-87
2021/11/13 05:11:19;;;;;;;99.83;51.55;;;;;;;3.50;94.52;100119.72;1839462;77;20976;-87
2021/11/13 05:13:45;;;;;;;99.30;52.30;;;;;;;3.50;94.71;100124.94;1843378;76;21008;-87
2021/11/13 05:16:11;;;;;;;108.27;54.23;;;;;;;3.48;94.72;100115.02;1842995;77;20985;-86
2021/11/13 05:18:37;;;;;;;88.52;47.60;;;;;;;3.46;94.93;100118.17;1843474;77;21456;-87
2021/11/13 05:21:03;;;;;;;103.20;52.23;;;;;;;3.44;95.04;100120.00;1843260;77;20959;-87
2021/11/13 05:23:29;;;;;;;101.38;52.88;;;;;;;3.43;95.09;100114.41;1859566;76;20958;-87
2021/11/13 05:25:55;;;;;;;99.00;51.75;;;;;;;3.42;95.15;100122.69;1858550;76;21591;-87
2021/11/13 05:28:21;;;;;;;101.30;49.00;;;;;;;3.42;95.14;100118.78;1819313;79;21037;-87
2021/11/13 05:30:47;;;;;;;103.78;51.00;;;;;;;3.42;95.12;100126.61;1821313;78;20996;-86
2021/11/13 05:33:13;;;;;;;99.10;48.95;;;;;;;3.42;95.16;100125.30;1842822;76;20950;-87
2021/11/13 05:35:39;;;;;;;94.52;48.52;;;;;;;3.42;95.14;100124.42;1842057;77;21035;-87
2021/11/13 05:38:06;;;;;;;100.95;49.58;;;;;;;3.43;95.15;100129.59;1842337;77;21068;-87
2021/11/13 05:40:32;;;;;;;101.72;49.93;;;;;;;3.45;95.21;100126.89;1842059;77;21032;-87
2021/11/13 05:42:58;;;;;;;95.20;47.50;;;;;;;3.47;95.24;100132.90;1842197;77;21435;-87
2021/11/13 05:45:24;;;;;;;105.85;51.65;;;;;;;3.49;95.02;100134.99;1838459;76;20981;-87
2021/11/13 05:47:50;;;;;;;91.15;48.35;;;;;;;3.50;95.01;100140.59;1838526;78;21599;-87
2021/11/13 05:50:19;;;;;;;91.17;48.33;;;;;;;3.50;94.93;100139.28;1841269;77;21060;-87
2021/11/13 05:52:48;;;;;;;97.05;47.98;;;;;;;3.48;94.87;100145.02;1846035;76;21005;-87
2021/11/13 05:55:15;;;;;;;104.03;50.23;;;;;;;3.50;94.97;100147.95;1854479;76;20969;-87
2021/11/13 05:57:42;;;;;;;90.38;47.78;;;;;;;3.49;94.94;100144.12;1872934;76;21484;-87
2021/11/13 06:00:15;;;;;;;91.37;48.75;;;;;;;3.50;94.89;100149.72;1822487;76;21008;-87
2021/11/13 06:02:42;;;;;;;93.03;45.58;;;;;;;3.52;94.98;100152.65;1817110;78;20968;-87
2021/11/13 06:05:09;;;;;;;88.55;46.42;;;;;;;3.52;94.90;100146.56;1843083;77;21326;-87
2021/11/13 06:07:36;;;;;;;94.72;46.48;;;;;;;3.55;95.01;100141.20;1848657;77;20991;-87
2021/11/13 06:10:03;;;;;;;94.15;46.53;;;;;;;3.58;94.96;100143.67;1859232;77;20965;-87
2021/11/13 06:12:28;;;;;;;93.05;47.00;;;;;;;3.60;94.85;100142.31;1842415;77;21553;-87
2021/11/13 06:14:54;;;;;;;95.87;48.60;;;;;;;3.60;94.71;100156.20;1848835;76;20991;-86
2021/11/13 06:17:20;;;;;;;95.30;47.93;;;;;;;3.60;94.72;100156.20;1867410;76;21477;-87
2021/11/13 06:19:46;;;;;;;89.92;47.53;;;;;;;3.60;94.64;100157.50;1841302;77;21026;-87
2021/11/13 06:22:12;;;;;;;92.72;47.50;;;;;;;3.59;94.56;100158.43;1841414;77;21012;-87
2021/11/13 06:24:39;;;;;;;92.37;48.33;;;;;;;3.58;94.58;100163.24;1841719;77;20990;-87
2021/11/13 06:27:05;;;;;;;90.57;47.08;;;;;;;3.59;94.66;100162.81;1843048;77;20934;-87
2021/11/13 06:29:31;;;;;;;88.87;44.70;;;;;;;3.61;94.74;100167.48;1843179;78;21018;-87
2021/11/13 06:31:58;;;;;;;90.95;45.70;;;;;;;3.61;94.66;100177.45;1843037;77;20958;-87
2021/11/13 06:34:25;;;;;;;100.42;49.08;;;;;;;3.63;94.66;100176.94;1842492;78;21032;-87
2021/11/13 06:36:51;;;;;;;94.80;49.10;;;;;;;3.65;94.71;100183.37;1845404;76;21510;-87
2021/11/13 06:39:18;;;;;;;94.30;48.08;;;;;;;3.63;94.59;100177.40;1855162;76;20996;-87
2021/11/13 06:41:44;;;;;;;97.30;48.87;;;;;;;3.63;94.69;100175.63;1842732;78;21472;-87
2021/11/13 06:44:10;;;;;;;94.52;47.95;;;;;;;3.67;94.89;100175.87;1843685;76;20917;-87
2021/11/13 06:46:36;;;;;;;97.60;48.33;;;;;;;3.70;94.91;100175.73;1860180;76;21005;-87
2021/11/13 06:49:02;;;;;;;96.45;49.98;;;;;;;3.71;94.83;100176.11;1846142;76;20977;-87
2021/11/13 06:51:28;;;;;;;101.85;53.80;;;;;;;3.71;94.78;100181.78;1848017;76;20978;-87
2021/11/13 06:53:54;;;;;;;94.80;51.85;;;;;;;3.69;94.79;100184.95;1843755;76;20969;-87
2021/11/13 06:56:20;;;;;;;103.65;51.02;;;;;;;3.67;94.95;100181.09;1857151;76;20972;-87
2021/11/13 06:58:47;;;;;;;99.22;50.90;;;;;;;3.70;95.18;100181.41;1842977;78;21012;-87
2021/11/13 07:01:14;;;;;;;98.05;49.45;;;;;;;3.71;95.26;100193.06;1842997;76;20984;-87
2021/11/13 07:03:40;;;;;;;94.97;47.65;;;;;;;3.72;95.31;100190.87;1842847;78;21033;-87
2021/11/13 07:06:06;;;;;;;90.17;49.10;;;;;;;3.76;95.51;100196.33;1841584;77;21001;-87
2021/11/13 07:08:32;;;;;;;91.57;45.80;;;;;;;3.78;95.45;100196.23;1843106;77;20954;-87
2021/11/13 07:10:58;;;;;;;91.20;48.68;;;;;;;3.81;95.57;100194.80;1843022;77;21047;-87
2021/11/13 07:13:26;;;;;;;97.45;45.88;;;;;;;3.83;95.73;100190.36;1843001;78;21609;-86
2021/11/13 07:15:53;;;;;;;94.42;48.63;;;;;;;3.86;95.72;100182.39;1841266;76;21021;-87
2021/11/13 07:18:19;;;;;;;100.95;50.20;;;;;;;3.89;95.82;100186.16;1836989;78;21020;-87
2021/11/13 07:20:59;;;;;;;90.40;45.70;;;;;;;3.93;95.85;100190.77;1841791;78;21020;-87
2021/11/13 07:23:25;;;;;;;96.10;48.20;;;;;;;3.96;95.91;100191.94;1841148;78;21048;-87
2021/11/13 07:25:51;;;;;;;83.25;46.85;;;;;;;4.02;96.04;100195.56;1841298;78;22160;-86
2021/11/13 07:28:20;;;;;;;97.12;49.05;;;;;;;4.07;96.12;100197.48;1842855;76;21024;-87
2021/11/13 07:30:49;;;;;;;91.92;47.30;;;;;;;4.12;96.05;100190.75;1842707;78;21558;-86
2021/11/13 07:33:15;;;;;;;96.92;46.70;;;;;;;4.16;95.96;100195.73;1843094;76;21040;-87
2021/11/13 07:35:43;;;;;;;86.22;47.03;;;;;;;4.19;95.86;100190.38;1843430;76;21470;-86
2021/11/13 07:38:11;;;;;;;88.72;47.15;;;;;;;4.22;95.86;100192.84;1844140;76;21029;-87
2021/11/13 07:40:39;;;;;;;94.62;43.58;;;;;;;4.28;95.89;100188.22;1835278;77;20957;-86
2021/11/13 07:43:07;;;;;;;90.75;45.43;;;;;;;4.32;95.90;100185.87;1817792;78;21454;-87
2021/11/13 07:45:34;;;;;;;91.15;45.30;;;;;;;4.37;95.96;100181.24;1842854;77;21020;-87
2021/11/13 07:48:04;;;;;;;84.77;45.90;;;;;;;4.43;96.05;100180.95;1880576;76;20947;-86
2021/11/13 07:50:37;;;;;;;91.10;47.95;;;;;;;4.48;96.00;100193.34;1881869;76;21100;-86
2021/11/13 07:53:06;;;;;;;82.95;42.53;;;;;;;4.54;95.72;100190.42;1883852;76;21249;-86
2021/11/13 07:55:33;;;;;;;88.92;49.58;;;;;;;4.58;95.69;100194.56;1853373;76;21495;-87
2021/11/13 07:58:00;;;;;;;94.15;48.50;;;;;;;4.63;95.84;100192.55;1825418;77;20975;-86
2021/11/13 08:00:26;;;;;;;94.45;49.20;;;;;;;4.70;95.75;100187.86;1821663;78;21013;-86
2021/11/13 08:02:54;;;;;;;88.85;45.58;;;;;;;4.75;95.55;100187.65;1819763;79;21008;-86
2021/11/13 08:05:22;;;;;;;87.67;46.30;;;;;;;4.79;95.44;100189.17;1849933;76;20967;-86
2021/11/13 08:07:50;;;;;;;86.55;43.85;;;;;;;4.82;95.35;100180.71;1883620;76;20971;-87
2021/11/13 08:10:17;;;;;;;84.67;46.10;;;;;;;4.86;95.35;100187.47;1883379;76;21006;-87
2021/11/13 08:12:45;;;;;;;86.20;41.50;;;;;;;4.89;95.18;100183.86;1872806;76;20999;-86
2021/11/13 08:15:12;;;;;;;98.27;52.30;;;;;;;4.93;95.25;100184.08;1871325;76;21517;-86
2021/11/13 08:17:38;;;;;;;99.65;49.60;;;;;;;4.97;95.08;100176.48;1847093;76;21437;-86
2021/11/13 08:20:07;;;;;;;88.97;47.23;;;;;;;5.00;95.05;100176.33;1834796;78;20942;-87
2021/11/13 08:22:36;;;;;;;102.40;56.20;;;;;;;5.04;95.10;100173.92;1845857;77;21465;-86
2021/11/13 08:25:08;;;;;;;94.42;51.35;;;;;;;5.08;95.00;100178.53;1871071;77;22214;-86
2021/11/13 08:27:34;;;;;;;111.70;55.07;;;;;;;5.10;94.74;100172.73;1843994;77;20933;-87
2021/11/13 08:30:00;;;;;;;109.63;54.05;;;;;;;5.12;94.60;100169.13;1837845;78;21025;-87
2021/11/13 08:32:27;;;;;;;102.00;50.38;;;;;;;5.17;94.74;100171.52;1832834;78;20967;-86
2021/11/13 08:34:53;;;;;;;110.00;54.65;;;;;;;5.21;94.55;100173.03;1824266;78;20967;-87
2021/11/13 08:37:19;;;;;;;107.00;52.55;;;;;;;5.23;94.27;100165.96;1835590;78;21033;-87
2021/11/13 08:39:45;;;;;;;106.43;55.92;;;;;;;5.25;94.16;100169.33;1807679;78;21015;-86
2021/11/13 08:42:12;;;;;;;125.47;67.62;;;;;;;5.28;94.11;100168.33;1809543;78;20998;-87
2021/11/13 08:44:44;;;;;;;121.00;66.35;;;;;;;5.31;94.05;100169.00;1824946;78;21069;-87
2021/11/13 08:47:14;;;;;;;148.97;83.87;;;;;;;5.35;94.05;100167.06;1827730;77;21505;-87
2021/11/13 08:49:45;;;;;;;129.68;69.32;;;;;;;5.39;94.19;100166.80;1822300;77;20991;-87
2021/11/13 08:52:15;;;;;;;105.10;54.77;;;;;;;5.44;94.08;100170.97;1827018;77;20943;-87
2021/11/13 08:54:42;;;;;;;96.97;50.30;;;;;;;5.48;94.24;100172.02;1835018;78;20963;-87
2021/11/13 08:57:09;;;;;;;93.78;48.90;;;;;;;5.53;94.16;100166.09;1840369;76;20944;-87
2021/11/13 08:59:36;;;;;;;84.52;45.85;;;;;;;5.59;94.21;100167.06;1836984;76;21438;-87
2021/11/13 09:02:09;;;;;;;91.47;47.38;;;;;;;5.64;93.96;100169.42;1850656;77;21010;-87
2021/11/13 09:04:33;;;;;;;88.82;46.65;;;;;;;5.69;93.98;100173.92;1812834;77;21022;-87
2021/11/13 09:07:00;;;;;;;104.83;55.92;;;;;;;5.76;94.00;100174.43;1836550;78;21002;-86
2021/11/13 09:09:26;;;;;;;98.92;53.50;;;;;;;5.81;93.93;100176.34;1836435;78;20959;-87
2021/11/13 09:11:52;;;;;;;89.80;47.10;;;;;;;5.88;93.66;100184.23;1818555;78;21468;-86
2021/11/13 09:14:19;;;;;;;82.72;45.43;;;;;;;5.94;93.45;100179.16;1808541;79;21079;-87
2021/11/13 09:16:45;;;;;;;70.83;39.25;;;;;;;5.99;93.47;100175.81;1802549;78;21026;-86
2021/11/13 09:19:12;;;;;;;78.37;42.27;;;;;;;6.05;93.45;100175.00;1809554;77;21015;-87
2021/11/13 09:21:38;;;;;;;78.83;41.85;;;;;;;6.12;93.29;100170.29;1820745;77;21009;-87
2021/11/13 09:24:06;;;;;;;78.07;41.50;;;;;;;6.19;93.15;100168.16;1818052;77;21014;-88
2021/11/13 09:26:33;;;;;;;83.17;41.92;;;;;;;6.24;92.97;100167.42;1817520;77;20956;-87
2021/11/13 09:29:00;;;;;;;79.27;43.17;;;;;;;6.29;92.87;100174.09;1847198;77;21023;-87
2021/11/13 09:31:26;;;;;;;81.65;42.23;;;;;;;6.34;92.62;100173.34;1813503;77;20970;-87
2021/11/13 09:33:53;;;;;;;69.32;39.75;;;;;;;6.41;92.90;100169.06;1823935;77;21052;-87
2021/11/13 09:36:21;;;;;;;72.97;37.90;;;;;;;6.48;92.67;100167.77;1827150;77;20968;-87
2021/11/13 09:38:48;;;;;;;64.22;36.63;;;;;;;6.53;92.69;100161.34;1804058;77;22271;-87
2021/11/13 09:41:15;;;;;;;70.52;38.67;;;;;;;6.59;92.23;100161.45;1820895;77;20976;-87
2021/11/13 09:43:42;;;;;;;64.25;35.70;;;;;;;6.65;92.00;100165.51;1829713;77;21020;-87
2021/11/13 09:46:10;;;;;;;65.78;36.90;;;;;;;6.70;92.23;100165.59;1825098;77;20972;-88
2021/11/13 09:48:40;;;;;;;59.20;35.38;;;;;;;6.75;91.70;100162.24;1835355;77;20948;-87
2021/11/13 09:51:08;;;;;;;59.95;34.55;;;;;;;6.81;91.92;100157.95;1832778;77;22393;-87
2021/11/13 09:53:35;;;;;;;57.17;36.13;;;;;;;6.89;91.53;100158.79;1806051;77;20949;-88
2021/11/13 09:56:02;;;;;;;57.48;34.10;;;;;;;6.96;91.42;100161.41;1814222;77;20993;-87
2021/11/13 09:58:28;;;;;;;59.75;31.82;;;;;;;7.02;90.95;100157.11;1813913;77;20968;-87
2021/11/13 10:00:56;;;;;;;57.20;34.90;;;;;;;7.08;90.70;100160.31;1815383;77;20968;-87
2021/11/13 10:03:22;;;;;;;62.33;38.45;;;;;;;7.13;90.77;100159.08;1777417;81;21288;-88
2021/11/13 10:05:53;;;;;;;58.75;34.73;;;;;;;7.19;90.44;100158.71;1818020;77;21558;-88
2021/11/13 10:08:20;;;;;;;58.68;33.55;;;;;;;7.25;90.55;100160.13;1847311;77;21478;-87
2021/11/13 10:10:49;;;;;;;63.00;33.55;;;;;;;7.31;90.12;100165.00;1834992;77;20944;-88
2021/11/13 10:13:29;;;;;;;61.23;35.03;;;;;;;7.34;89.95;100159.56;1826754;77;20962;-88
2021/11/13 10:16:00;;;;;;;57.33;33.55;;;;;;;7.37;89.54;100159.81;1804705;77;20996;-85
2021/11/13 10:18:31;;;;;;;60.15;36.45;;;;;;;7.41;89.46;100156.92;1793482;77;21550;-88
2021/11/13 10:21:09;;;;;;;60.35;35.23;;;;;;;7.42;89.25;100153.35;1807119;77;21019;-88
2021/11/13 10:23:59;;;;;;;58.08;31.73;;;;;;;7.44;88.81;100160.67;1824426;76;21463;-88
2021/11/13 10:26:34;;;;;;;59.70;32.63;;;;;;;7.45;88.24;100156.27;1819655;77;21030;-87
2021/11/13 10:29:09;;;;;;;53.90;30.85;;;;;;;7.44;87.91;100155.42;1810533;77;21052;-88
2021/11/13 10:31:43;;;;;;;61.15;34.18;;;;;;;7.47;87.86;100154.40;1812793;77;20997;-87
2021/11/13 10:34:20;;;;;;;60.08;32.58;;;;;;;7.52;88.41;100153.15;1819683;77;21478;-88
2021/11/13 10:36:51;;;;;;;55.73;32.83;;;;;;;7.58;88.42;100145.36;1812700;77;20975;-88
2021/11/13 10:39:24;;;;;;;56.68;32.98;;;;;;;7.64;87.88;100138.89;1803852;79;20997;-88
2021/11/13 10:41:58;;;;;;;52.10;30.45;;;;;;;7.69;88.19;100138.95;1805451;77;21463;-88
2021/11/13 10:44:29;;;;;;;53.08;31.20;;;;;;;7.79;88.69;100137.89;1793705;79;21476;-87
2021/11/13 10:47:01;;;;;;;59.75;32.80;;;;;;;7.92;87.93;100138.80;1802568;77;20983;-87
2021/11/13 10:49:28;;;;;;;55.03;32.53;;;;;;;8.01;87.78;100133.90;1800656;80;22160;-88
2021/11/13 10:51:59;;;;;;;54.90;30.75;;;;;;;8.07;87.88;100128.25;1802378;77;21007;-88
2021/11/13 10:54:28;;;;;;;59.70;32.45;;;;;;;8.14;87.46;100122.95;1800632;78;21034;-87
2021/11/13 10:57:04;;;;;;;67.47;35.23;;;;;;;8.18;86.65;100121.80;1801286;77;20945;-87
2021/11/13 10:59:41;;;;;;;60.15;32.67;;;;;;;8.19;86.82;100126.11;1800700;80;21046;-87
2021/11/13 11:02:15;;;;;;;50.98;31.12;;;;;;;8.23;86.81;100124.98;1805261;77;21007;-88
2021/11/13 11:04:44;;;;;;;58.63;30.08;;;;;;;;;;1800612;80;21007;-88
2021/11/13 11:07:24;;;;;;;53.52;32.42;;;;;;;8.31;86.39;100125.78;1800983;80;21000;-88
2021/11/13 11:10:09;;;;;;;49.30;31.42;;;;;;;8.38;85.96;100117.89;1800672;78;21004;-88
2021/11/13 11:12:38;;;;;;;53.42;31.17;;;;;;;8.47;86.20;100123.85;1804300;78;21005;-88
2021/11/13 11:15:14;;;;;;;52.43;30.25;;;;;;;8.62;86.54;100118.89;1809180;77;20982;-88
2021/11/13 11:17:45;;;;;;;50.05;31.40;;;;;;;8.77;86.02;100115.67;1832137;76;21433;-87
2021/11/13 11:20:15;;;;;;;44.45;27.95;;;;;;;8.91;86.07;100109.45;1836418;77;21591;-88
2021/11/13 11:22:43;;;;;;;45.35;28.05;;;;;;;9.00;84.78;100109.30;1831751;78;21454;-87